createdAt,value
2023-01-09T14:32:32.194Z,13.73
2023-01-09T14:43:51.813Z,13.75
2023-01-09T15:20:22.066Z,13.75
2023-01-09T15:48:31.407Z,13.65
2023-01-09T15:51:20.059Z,13.67
2023-01-09T16:45:25.503Z,13.44
2023-01-09T16:48:25.081Z,13.46
2023-01-09T16:50:53.709Z,13.46
2023-01-09T17:07:27.925Z,13.46
2023-01-09T17:27:14.341Z,13.43
2023-01-09T17:29:43.270Z,13.44
2023-01-09T17:32:16.871Z,13.46
2023-01-09T17:34:53.685Z,13.47
2023-01-09T17:37:24.912Z,13.48
2023-01-09T17:39:54.336Z,13.49
2023-01-09T17:42:25.705Z,13.51
2023-01-09T17:44:56.433Z,13.47
2023-01-09T17:47:24.717Z,13.48
2023-01-09T17:49:56.093Z,13.50
2023-01-09T17:52:26.082Z,13.46
2023-01-09T17:54:54.299Z,13.47
2023-01-09T17:57:22.690Z,13.48
2023-01-09T17:59:51.062Z,13.49
2023-01-09T18:02:20.223Z,13.50
2023-01-09T18:04:48.686Z,13.52
2023-01-09T18:07:19.415Z,13.54
2023-01-09T18:09:47.770Z,13.55
2023-01-09T18:12:17.984Z,13.55
2023-01-09T18:14:47.848Z,13.56
2023-01-09T18:17:16.351Z,13.59
2023-01-09T18:19:45.293Z,13.61
2023-01-09T18:22:26.166Z,13.65
2023-01-09T18:25:28.856Z,13.67
2023-01-09T18:28:00.335Z,13.69
2023-01-09T18:30:29.124Z,13.72
2023-01-09T18:32:59.943Z,13.75
2023-01-09T18:35:56.787Z,13.77
2023-01-09T18:52:56.866Z,13.89
2023-01-09T18:56:28.139Z,13.90
2023-01-09T18:58:58.496Z,13.91
2023-01-09T19:04:57.610Z,13.93
2023-01-09T19:07:31.454Z,13.93
2023-01-09T19:10:01.743Z,13.94
2023-01-09T19:12:31.747Z,13.95
2023-01-09T19:15:00.096Z,13.96
2023-01-09T19:17:28.548Z,13.97
2023-01-09T19:19:56.780Z,13.98
2023-01-09T19:22:29.944Z,14.00
2023-01-09T19:24:58.212Z,14.02
2023-01-09T19:27:26.485Z,14.05
2023-01-09T19:29:55.233Z,14.07
2023-01-09T19:32:26.621Z,14.10
2023-01-09T19:34:57.349Z,14.11
2023-01-09T19:37:33.207Z,14.12
2023-01-09T19:40:01.493Z,14.14
2023-01-09T19:42:30.172Z,14.15
2023-01-09T19:44:58.405Z,14.17
2023-01-09T19:47:29.892Z,14.19
2023-01-09T19:49:58.144Z,14.22
2023-01-09T19:52:31.166Z,14.24
2023-01-09T19:54:59.527Z,14.27
2023-01-09T20:00:31.413Z,14.37
2023-01-09T20:02:59.937Z,14.41
2023-01-09T20:05:36.849Z,14.45
2023-01-09T20:08:07.429Z,14.50
2023-01-09T20:10:44.837Z,14.57
2023-01-09T20:13:13.837Z,14.62
2023-01-09T20:15:42.257Z,14.66
2023-01-09T20:18:11.228Z,14.72
2023-01-09T20:20:49.284Z,14.77
2023-01-09T20:23:20.509Z,14.81
2023-01-09T20:25:50.945Z,14.86
2023-01-09T20:28:19.258Z,14.88
2023-01-09T20:30:50.232Z,14.90
2023-01-09T20:33:19.512Z,14.90
2023-01-09T20:35:48.398Z,14.91
2023-01-09T20:38:16.879Z,14.94
2023-01-09T20:40:45.308Z,14.96
2023-01-09T20:43:14.154Z,14.97
2023-01-09T20:45:42.647Z,14.97
2023-01-09T20:48:12.060Z,14.96
2023-01-09T20:50:43.413Z,14.97
2023-01-09T20:53:14.121Z,14.96
2023-01-09T20:55:43.480Z,14.93
2023-01-09T20:58:11.796Z,14.93
2023-01-09T21:00:42.475Z,14.94
2023-01-09T21:03:13.111Z,14.94
2023-01-09T21:05:42.316Z,14.92
2023-01-09T21:08:10.678Z,14.91
2023-01-09T21:10:39.148Z,14.90
2023-01-09T21:13:07.358Z,14.91
2023-01-09T21:15:37.990Z,14.91
2023-01-09T21:18:06.502Z,14.93
2023-01-09T21:20:35.725Z,14.93
2023-01-09T21:24:58.383Z,14.97
2023-01-09T21:47:08.369Z,14.93
2023-01-09T22:02:02.029Z,14.91
2023-01-09T22:04:39.884Z,14.90
2023-01-09T22:08:13.893Z,14.90
2023-01-09T22:10:02.993Z,14.92
2023-01-09T22:16:09.882Z,14.81
2023-01-09T22:19:03.359Z,14.73
2023-01-09T22:24:49.366Z,14.62
2023-01-09T22:27:17.516Z,14.55
2023-01-09T22:29:57.787Z,14.52
2023-01-09T22:32:33.841Z,14.52
2023-01-09T22:35:12.631Z,14.46
2023-01-09T22:37:40.919Z,14.37
2023-01-09T22:40:12.542Z,14.32
2023-01-09T22:42:44.276Z,14.32
2023-01-09T22:45:13.272Z,14.30
2023-01-09T22:48:01.021Z,14.27
2023-01-09T22:50:33.162Z,14.25
2023-01-09T22:53:01.995Z,14.24
2023-01-09T22:58:33.868Z,14.18
2023-01-09T23:01:02.193Z,14.16
2023-01-09T23:03:30.779Z,14.16
2023-01-09T23:06:03.125Z,14.12
2023-01-09T23:08:32.556Z,14.06
2023-01-09T23:11:01.851Z,14.05
2023-01-09T23:13:39.358Z,14.00
2023-01-09T23:16:33.928Z,13.95
2023-01-09T23:19:07.292Z,13.91
2023-01-09T23:21:35.740Z,13.90
2023-01-09T23:24:04.553Z,13.89
2023-01-09T23:26:38.852Z,13.87
2023-01-09T23:29:11.084Z,13.85
2023-01-09T23:31:39.520Z,13.82
2023-01-09T23:34:10.566Z,13.81
2023-01-09T23:36:38.809Z,13.80
2023-01-09T23:39:14.564Z,13.79
2023-01-09T23:46:05.474Z,13.75
2023-01-09T23:48:57.286Z,13.72
2023-01-09T23:52:09.695Z,13.70
2023-01-09T23:54:41.558Z,13.66
2023-01-09T23:57:10.875Z,13.63
2023-01-09T23:59:39.625Z,13.64
